Lentokenttä METAR

 

EFHK - Helsinki/Vantaa
Etäisyys sääasemasta: IKO 36km
Päivitetty: 24/05/2018 00:50
Selkeää
Selkeää
 Tuulen suunta PLU
Tuuli: PLU 5 m/s
Lämpötila: 14°C
Kastepiste: 3°C
Kosteus: 48%
Ilmanpaine: 1025 hPa
Yhteenveto: Selkeää
Näkyvyys: Suurempi kuin 10 km
2018/05/23 21:50 EFHK 232150Z 33009KT CAVOK 14/03 Q1025 NOSIG
EETN - Tallinn, Estonia
Etäisyys sääasemasta: EKA 97km
Päivitetty: 24/05/2018 01:20
Selkeää
Selkeää
 Tuulen suunta PLU
Tuuli: PLU 2 m/s
Lämpötila: 16°C
Kastepiste: 8°C
Kosteus: 59%
Ilmanpaine: 1024 hPa
Yhteenveto: Selkeää
Näkyvyys: Suurempi kuin 10 km
2018/05/23 22:20 EETN 232220Z 34004KT 300V020 CAVOK 16/08 Q1024
 
EFTU - Turku
Etäisyys sääasemasta: LLU 119km
Päivitetty: 24/05/2018 00:50
Selkeää
Selkeää
 Tuulen suunta PKO
Tuuli: PKO 2 m/s
Lämpötila: 13°C
Kastepiste: 0°C
Kosteus: 41%
Ilmanpaine: 1027 hPa
Yhteenveto: Selkeää
Näkyvyys: Suurempi kuin 10 km
2018/05/23 21:50 EFTU 232150Z AUTO 02003KT 340V050 CAVOK 13/00 Q1027
EFLP - Lappeenranta
Etäisyys sääasemasta: IKO 227km
Päivitetty: 24/05/2018 00:50
Selkeää
Selkeää
 Tuulen suunta P
Tuuli: P 3 m/s
Lämpötila: 15°C
Kastepiste: 5°C
Kosteus: 51%
Ilmanpaine: 1023 hPa
Yhteenveto: Selkeää
Näkyvyys: Suurempi kuin 10 km
2018/05/23 21:50 EFLP 232150Z AUTO 35006KT 310V020 CAVOK 15/05 Q1023
 
EFJY - Jyvaskylä
Etäisyys sääasemasta: PKO 253km
Päivitetty: 24/05/2018 00:50
Selkeää
Selkeää
 Tuulen suunta PLU
Tuuli: PLU 4 m/s
Lämpötila: 9°C
Hyytävyys: 7°C
Kastepiste: -1°C
Kosteus: 50%
Ilmanpaine: 1026 hPa
Yhteenveto: Selkeää
Näkyvyys: Suurempi kuin 10 km
2018/05/23 21:50 EFJY 232150Z AUTO 33008KT CAVOK 09/M01 Q1026
EFSA - Savonlinna
Etäisyys sääasemasta: KO 313km
Päivitetty: 24/05/2018 00:50
Selkeää
Selkeää
 Tuulen suunta PLU
Tuuli: PLU 2 m/s
Lämpötila: 13°C
Kastepiste: 2°C
Kosteus: 47%
Ilmanpaine: 1024 hPa
Yhteenveto: Selkeää
Näkyvyys: Suurempi kuin 10 km
2018/05/23 21:50 EFSA 232150Z AUTO 34004KT 300V020 CAVOK 13/02 Q1024
 
ESSA - Stockholm/Arlanda, Sweden
Etäisyys sääasemasta: L 363km
Päivitetty: 24/05/2018 00:50
Selkeää
Selkeää
 Tuulen suunta PKO
Tuuli: PKO 2 m/s
Lämpötila: 7°C
Kastepiste: 2°C
Kosteus: 71%
Ilmanpaine: 1029 hPa
Yhteenveto: Selkeää
Näkyvyys: Suurempi kuin 10 km
2018/05/23 21:50 ESSA 232150Z 02003KT CAVOK 07/02 Q1029 NOSIG
ESGG - Göteborg, Sweden
Etäisyys sääasemasta: LO 900km
Päivitetty: 24/05/2018 00:50
Selkeää
Selkeää
 Tuulen suunta PKO
Tuuli: PKO 4 m/s
Lämpötila: 15°C
Kastepiste: 4°C
Kosteus: 48%
Ilmanpaine: 1027 hPa
Yhteenveto: Selkeää
Näkyvyys: Suurempi kuin 10 km
2018/05/23 21:50 ESGG 232150Z 03007KT CAVOK 15/04 Q1027
 
ENGM - Oslo, Norway
Etäisyys sääasemasta: L 950km
Päivitetty: 24/05/2018 00:50
Selkeää
Selkeää
 Tuulen suunta E
Tuuli: E 3 m/s
Lämpötila: 16°C
Kastepiste: 2°C
Kosteus: 39%
Ilmanpaine: 1027 hPa
Yhteenveto: Selkeää
Näkyvyys: Suurempi kuin 10 km
2018/05/23 21:50 ENGM 232150Z 19005KT CAVOK 16/02 Q1027